sensor_id;sensor_type;location;lat;lon;timestamp;temperature;humidity
32097;DHT22;18610;49.916;8.284;2023-12-22T00:01:09;5.70;99.90
32097;DHT22;18610;49.916;8.284;2023-12-22T00:03:37;5.70;99.90
32097;DHT22;18610;49.916;8.284;2023-12-22T00:06:04;5.70;99.90
32097;DHT22;18610;49.916;8.284;2023-12-22T00:08:30;5.70;99.90
32097;DHT22;18610;49.916;8.284;2023-12-22T00:10:58;5.70;99.90
32097;DHT22;18610;49.916;8.284;2023-12-22T00:13:25;5.70;99.90
32097;DHT22;18610;49.916;8.284;2023-12-22T00:15:52;5.70;99.90
32097;DHT22;18610;49.916;8.284;2023-12-22T00:18:19;5.70;99.90
32097;DHT22;18610;49.916;8.284;2023-12-22T00:20:45;5.80;99.90
32097;DHT22;18610;49.916;8.284;2023-12-22T00:23:12;5.80;99.90
32097;DHT22;18610;49.916;8.284;2023-12-22T00:25:39;5.80;99.90
32097;DHT22;18610;49.916;8.284;2023-12-22T00:28:06;5.80;99.90
32097;DHT22;18610;49.916;8.284;2023-12-22T00:30:33;5.80;99.90
32097;DHT22;18610;49.916;8.284;2023-12-22T00:33:00;5.80;99.90
32097;DHT22;18610;49.916;8.284;2023-12-22T00:35:26;5.70;99.90
32097;DHT22;18610;49.916;8.284;2023-12-22T00:37:53;5.70;99.90
32097;DHT22;18610;49.916;8.284;2023-12-22T00:40:20;5.60;99.90
32097;DHT22;18610;49.916;8.284;2023-12-22T00:42:47;5.60;99.90
32097;DHT22;18610;49.916;8.284;2023-12-22T00:45:15;5.60;99.90
32097;DHT22;18610;49.916;8.284;2023-12-22T00:47:42;5.50;99.90
32097;DHT22;18610;49.916;8.284;2023-12-22T00:50:09;5.50;99.90
32097;DHT22;18610;49.916;8.284;2023-12-22T00:52:36;5.50;99.90
32097;DHT22;18610;49.916;8.284;2023-12-22T00:55:02;5.50;99.90
32097;DHT22;18610;49.916;8.284;2023-12-22T00:57:29;5.60;99.90
32097;DHT22;18610;49.916;8.284;2023-12-22T00:59:56;5.60;99.90
32097;DHT22;18610;49.916;8.284;2023-12-22T01:02:24;5.60;99.90
32097;DHT22;18610;49.916;8.284;2023-12-22T01:04:51;5.50;99.90
32097;DHT22;18610;49.916;8.284;2023-12-22T01:07:17;5.60;99.90
32097;DHT22;18610;49.916;8.284;2023-12-22T01:09:44;5.60;99.90
32097;DHT22;18610;49.916;8.284;2023-12-22T01:12:11;5.60;99.90
32097;DHT22;18610;49.916;8.284;2023-12-22T01:14:38;5.60;99.90
32097;DHT22;18610;49.916;8.284;2023-12-22T01:17:07;5.70;99.90
32097;DHT22;18610;49.916;8.284;2023-12-22T01:19:35;5.70;99.90
32097;DHT22;18610;49.916;8.284;2023-12-22T01:22:02;5.70;99.90
32097;DHT22;18610;49.916;8.284;2023-12-22T01:24:28;5.70;99.90
32097;DHT22;18610;49.916;8.284;2023-12-22T01:26:55;5.70;99.90
32097;DHT22;18610;49.916;8.284;2023-12-22T01:29:22;5.70;99.90
32097;DHT22;18610;49.916;8.284;2023-12-22T01:31:48;5.70;99.90
32097;DHT22;18610;49.916;8.284;2023-12-22T01:34:15;5.70;99.90
32097;DHT22;18610;49.916;8.284;2023-12-22T01:36:43;5.70;99.90
32097;DHT22;18610;49.916;8.284;2023-12-22T01:39:09;5.70;99.90
32097;DHT22;18610;49.916;8.284;2023-12-22T01:41:36;5.70;99.90
32097;DHT22;18610;49.916;8.284;2023-12-22T01:44:03;5.70;99.90
32097;DHT22;18610;49.916;8.284;2023-12-22T01:46:30;5.80;99.90
32097;DHT22;18610;49.916;8.284;2023-12-22T01:48:58;5.90;99.90
32097;DHT22;18610;49.916;8.284;2023-12-22T01:51:26;6.00;99.90
32097;DHT22;18610;49.916;8.284;2023-12-22T01:53:54;6.10;99.90
32097;DHT22;18610;49.916;8.284;2023-12-22T01:56:21;6.10;99.90
32097;DHT22;18610;49.916;8.284;2023-12-22T01:58:48;6.20;99.90
32097;DHT22;18610;49.916;8.284;2023-12-22T02:01:17;6.30;99.90
32097;DHT22;18610;49.916;8.284;2023-12-22T02:03:44;6.30;99.90
32097;DHT22;18610;49.916;8.284;2023-12-22T02:06:11;6.30;99.90
32097;DHT22;18610;49.916;8.284;2023-12-22T02:08:38;6.30;99.90
32097;DHT22;18610;49.916;8.284;2023-12-22T02:11:06;6.30;99.90
32097;DHT22;18610;49.916;8.284;2023-12-22T02:13:33;6.30;99.90
32097;DHT22;18610;49.916;8.284;2023-12-22T02:16:04;6.40;99.90
32097;DHT22;18610;49.916;8.284;2023-12-22T02:18:34;6.40;99.90
32097;DHT22;18610;49.916;8.284;2023-12-22T02:21:01;6.40;99.90
32097;DHT22;18610;49.916;8.284;2023-12-22T02:23:30;6.40;99.90
32097;DHT22;18610;49.916;8.284;2023-12-22T02:26:05;6.50;99.90
32097;DHT22;18610;49.916;8.284;2023-12-22T02:28:33;6.50;99.90
32097;DHT22;18610;49.916;8.284;2023-12-22T02:31:04;6.60;99.90
32097;DHT22;18610;49.916;8.284;2023-12-22T02:33:35;6.60;99.90
32097;DHT22;18610;49.916;8.284;2023-12-22T02:36:03;6.50;99.90
32097;DHT22;18610;49.916;8.284;2023-12-22T02:38:35;6.50;99.90
32097;DHT22;18610;49.916;8.284;2023-12-22T02:41:02;6.50;99.90
32097;DHT22;18610;49.916;8.284;2023-12-22T02:43:29;6.50;99.90
32097;DHT22;18610;49.916;8.284;2023-12-22T02:45:56;6.50;99.90
32097;DHT22;18610;49.916;8.284;2023-12-22T02:48:22;6.40;99.90
32097;DHT22;18610;49.916;8.284;2023-12-22T02:50:49;6.40;99.90
32097;DHT22;18610;49.916;8.284;2023-12-22T02:53:16;6.40;99.90
32097;DHT22;18610;49.916;8.284;2023-12-22T02:55:44;6.40;99.90
32097;DHT22;18610;49.916;8.284;2023-12-22T02:58:10;6.40;99.90
32097;DHT22;18610;49.916;8.284;2023-12-22T03:00:37;6.40;99.90
32097;DHT22;18610;49.916;8.284;2023-12-22T03:03:04;6.40;99.90
32097;DHT22;18610;49.916;8.284;2023-12-22T03:05:30;6.40;99.90
32097;DHT22;18610;49.916;8.284;2023-12-22T03:07:57;6.50;99.90
32097;DHT22;18610;49.916;8.284;2023-12-22T03:10:24;6.50;99.90
32097;DHT22;18610;49.916;8.284;2023-12-22T03:12:52;6.50;99.90
32097;DHT22;18610;49.916;8.284;2023-12-22T03:15:19;6.50;99.90
32097;DHT22;18610;49.916;8.284;2023-12-22T03:17:45;6.50;99.90
32097;DHT22;18610;49.916;8.284;2023-12-22T03:20:12;6.50;99.90
32097;DHT22;18610;49.916;8.284;2023-12-22T03:22:39;6.50;99.90
32097;DHT22;18610;49.916;8.284;2023-12-22T03:25:06;6.60;99.90
32097;DHT22;18610;49.916;8.284;2023-12-22T03:27:33;6.60;99.90
32097;DHT22;18610;49.916;8.284;2023-12-22T03:30:01;6.60;99.90
32097;DHT22;18610;49.916;8.284;2023-12-22T03:32:29;6.70;99.90
32097;DHT22;18610;49.916;8.284;2023-12-22T03:34:55;6.70;99.90
32097;DHT22;18610;49.916;8.284;2023-12-22T03:37:22;6.70;99.90
32097;DHT22;18610;49.916;8.284;2023-12-22T03:39:49;6.60;99.90
32097;DHT22;18610;49.916;8.284;2023-12-22T03:42:15;6.60;99.90
32097;DHT22;18610;49.916;8.284;2023-12-22T03:44:42;6.60;99.90
32097;DHT22;18610;49.916;8.284;2023-12-22T03:47:10;6.60;99.90
32097;DHT22;18610;49.916;8.284;2023-12-22T03:49:37;6.50;99.90
32097;DHT22;18610;49.916;8.284;2023-12-22T03:52:03;6.50;99.90
32097;DHT22;18610;49.916;8.284;2023-12-22T03:54:30;6.50;99.90
32097;DHT22;18610;49.916;8.284;2023-12-22T03:57:00;6.50;99.90
32097;DHT22;18610;49.916;8.284;2023-12-22T03:59:26;6.40;99.90
32097;DHT22;18610;49.916;8.284;2023-12-22T04:01:53;6.40;99.90
32097;DHT22;18610;49.916;8.284;2023-12-22T04:04:22;6.40;99.90
32097;DHT22;18610;49.916;8.284;2023-12-22T04:06:48;6.40;99.90
32097;DHT22;18610;49.916;8.284;2023-12-22T04:09:16;6.40;99.90
32097;DHT22;18610;49.916;8.284;2023-12-22T04:11:43;6.30;99.90
32097;DHT22;18610;49.916;8.284;2023-12-22T04:14:10;6.30;99.90
32097;DHT22;18610;49.916;8.284;2023-12-22T04:16:37;6.30;99.90
32097;DHT22;18610;49.916;8.284;2023-12-22T04:19:03;6.30;99.90
32097;DHT22;18610;49.916;8.284;2023-12-22T04:21:31;6.30;99.90
32097;DHT22;18610;49.916;8.284;2023-12-22T04:23:58;6.30;99.90
32097;DHT22;18610;49.916;8.284;2023-12-22T04:26:25;6.30;99.90
32097;DHT22;18610;49.916;8.284;2023-12-22T04:28:51;6.20;99.90
32097;DHT22;18610;49.916;8.284;2023-12-22T04:31:18;6.20;99.90
32097;DHT22;18610;49.916;8.284;2023-12-22T04:33:45;6.30;99.90
32097;DHT22;18610;49.916;8.284;2023-12-22T04:36:11;6.20;99.90
32097;DHT22;18610;49.916;8.284;2023-12-22T04:38:39;6.20;99.90
32097;DHT22;18610;49.916;8.284;2023-12-22T04:41:06;6.20;99.90
32097;DHT22;18610;49.916;8.284;2023-12-22T04:43:36;6.30;99.90
32097;DHT22;18610;49.916;8.284;2023-12-22T04:46:03;6.30;99.90
32097;DHT22;18610;49.916;8.284;2023-12-22T04:48:30;6.40;99.90
32097;DHT22;18610;49.916;8.284;2023-12-22T04:50:58;6.40;99.90
32097;DHT22;18610;49.916;8.284;2023-12-22T04:53:25;6.40;99.90
32097;DHT22;18610;49.916;8.284;2023-12-22T04:55:53;6.40;99.90
32097;DHT22;18610;49.916;8.284;2023-12-22T04:58:19;6.50;99.90
32097;DHT22;18610;49.916;8.284;2023-12-22T05:00:46;6.50;99.90
32097;DHT22;18610;49.916;8.284;2023-12-22T05:03:13;6.60;99.90
32097;DHT22;18610;49.916;8.284;2023-12-22T05:05:39;6.60;99.90
32097;DHT22;18610;49.916;8.284;2023-12-22T05:08:06;6.70;99.90
32097;DHT22;18610;49.916;8.284;2023-12-22T05:10:33;6.70;99.90
32097;DHT22;18610;49.916;8.284;2023-12-22T05:13:01;6.60;99.90
32097;DHT22;18610;49.916;8.284;2023-12-22T05:15:28;6.70;99.90
32097;DHT22;18610;49.916;8.284;2023-12-22T05:17:55;6.60;99.90
32097;DHT22;18610;49.916;8.284;2023-12-22T05:20:21;6.60;99.90
32097;DHT22;18610;49.916;8.284;2023-12-22T05:22:48;6.60;99.90
32097;DHT22;18610;49.916;8.284;2023-12-22T05:25:15;6.60;99.90
32097;DHT22;18610;49.916;8.284;2023-12-22T05:27:41;6.60;99.90
32097;DHT22;18610;49.916;8.284;2023-12-22T05:30:11;6.60;99.90
32097;DHT22;18610;49.916;8.284;2023-12-22T05:32:38;6.60;99.90
32097;DHT22;18610;49.916;8.284;2023-12-22T05:35:07;6.50;99.90
32097;DHT22;18610;49.916;8.284;2023-12-22T05:37:35;6.50;99.90
32097;DHT22;18610;49.916;8.284;2023-12-22T05:40:02;6.50;99.90
32097;DHT22;18610;49.916;8.284;2023-12-22T05:42:31;6.40;99.90
32097;DHT22;18610;49.916;8.284;2023-12-22T05:44:58;6.40;99.90
32097;DHT22;18610;49.916;8.284;2023-12-22T05:47:26;6.40;99.90
32097;DHT22;18610;49.916;8.284;2023-12-22T05:49:53;6.50;99.90
32097;DHT22;18610;49.916;8.284;2023-12-22T05:52:20;6.50;99.90
32097;DHT22;18610;49.916;8.284;2023-12-22T05:54:46;6.50;99.90
32097;DHT22;18610;49.916;8.284;2023-12-22T05:57:13;6.50;99.90
32097;DHT22;18610;49.916;8.284;2023-12-22T05:59:39;6.50;99.90
32097;DHT22;18610;49.916;8.284;2023-12-22T06:02:06;6.40;99.90
32097;DHT22;18610;49.916;8.284;2023-12-22T06:04:34;6.50;99.90
32097;DHT22;18610;49.916;8.284;2023-12-22T06:07:01;6.50;99.90
32097;DHT22;18610;49.916;8.284;2023-12-22T06:09:28;6.60;99.90
32097;DHT22;18610;49.916;8.284;2023-12-22T06:11:55;6.60;99.90
32097;DHT22;18610;49.916;8.284;2023-12-22T06:14:23;6.60;99.90
32097;DHT22;18610;49.916;8.284;2023-12-22T06:16:49;6.60;99.90
32097;DHT22;18610;49.916;8.284;2023-12-22T06:19:19;6.60;99.90
32097;DHT22;18610;49.916;8.284;2023-12-22T06:21:47;6.60;99.90
32097;DHT22;18610;49.916;8.284;2023-12-22T06:24:14;6.70;99.90
32097;DHT22;18610;49.916;8.284;2023-12-22T06:26:41;6.70;99.90
32097;DHT22;18610;49.916;8.284;2023-12-22T06:29:08;6.70;99.90
32097;DHT22;18610;49.916;8.284;2023-12-22T06:31:35;6.70;99.90
32097;DHT22;18610;49.916;8.284;2023-12-22T06:34:02;6.70;99.90
32097;DHT22;18610;49.916;8.284;2023-12-22T06:36:29;6.70;99.90
32097;DHT22;18610;49.916;8.284;2023-12-22T06:38:57;6.80;99.90
32097;DHT22;18610;49.916;8.284;2023-12-22T06:41:25;6.70;99.90
32097;DHT22;18610;49.916;8.284;2023-12-22T06:43:52;6.70;99.90
32097;DHT22;18610;49.916;8.284;2023-12-22T06:46:19;6.80;99.90
32097;DHT22;18610;49.916;8.284;2023-12-22T06:48:47;6.70;99.90
32097;DHT22;18610;49.916;8.284;2023-12-22T06:51:17;6.80;99.90
32097;DHT22;18610;49.916;8.284;2023-12-22T06:53:45;6.80;99.90
32097;DHT22;18610;49.916;8.284;2023-12-22T06:56:20;6.80;99.90
32097;DHT22;18610;49.916;8.284;2023-12-22T06:58:47;6.90;99.90
32097;DHT22;18610;49.916;8.284;2023-12-22T07:01:18;7.00;99.90
32097;DHT22;18610;49.916;8.284;2023-12-22T07:03:46;7.00;99.90
32097;DHT22;18610;49.916;8.284;2023-12-22T07:06:13;7.10;99.90
32097;DHT22;18610;49.916;8.284;2023-12-22T07:08:40;7.10;99.90
32097;DHT22;18610;49.916;8.284;2023-12-22T07:11:06;7.20;99.90
32097;DHT22;18610;49.916;8.284;2023-12-22T07:13:35;7.20;99.90
32097;DHT22;18610;49.916;8.284;2023-12-22T07:16:01;7.20;99.90
32097;DHT22;18610;49.916;8.284;2023-12-22T07:18:28;7.30;99.90
32097;DHT22;18610;49.916;8.284;2023-12-22T07:20:56;7.20;99.90
32097;DHT22;18610;49.916;8.284;2023-12-22T07:23:22;7.20;99.90
32097;DHT22;18610;49.916;8.284;2023-12-22T07:25:49;7.20;99.90
32097;DHT22;18610;49.916;8.284;2023-12-22T07:28:15;7.20;99.90
32097;DHT22;18610;49.916;8.284;2023-12-22T07:30:43;7.30;99.90
32097;DHT22;18610;49.916;8.284;2023-12-22T07:33:10;7.30;99.90
32097;DHT22;18610;49.916;8.284;2023-12-22T07:35:37;7.30;99.90
32097;DHT22;18610;49.916;8.284;2023-12-22T07:38:03;7.30;99.90
32097;DHT22;18610;49.916;8.284;2023-12-22T07:40:30;7.30;99.90
32097;DHT22;18610;49.916;8.284;2023-12-22T07:42:57;7.30;99.90
32097;DHT22;18610;49.916;8.284;2023-12-22T07:45:24;7.40;99.90
32097;DHT22;18610;49.916;8.284;2023-12-22T07:47:52;7.40;99.90
32097;DHT22;18610;49.916;8.284;2023-12-22T07:50:18;7.50;99.90
32097;DHT22;18610;49.916;8.284;2023-12-22T07:52:46;7.50;99.90
32097;DHT22;18610;49.916;8.284;2023-12-22T07:55:13;7.50;99.90
32097;DHT22;18610;49.916;8.284;2023-12-22T07:57:41;7.50;99.90
32097;DHT22;18610;49.916;8.284;2023-12-22T08:00:08;7.60;99.90
32097;DHT22;18610;49.916;8.284;2023-12-22T08:02:36;7.60;99.90
32097;DHT22;18610;49.916;8.284;2023-12-22T08:05:04;7.60;99.90
32097;DHT22;18610;49.916;8.284;2023-12-22T08:07:31;7.60;99.90
32097;DHT22;18610;49.916;8.284;2023-12-22T08:09:57;7.70;99.90
32097;DHT22;18610;49.916;8.284;2023-12-22T08:12:24;7.70;99.90
32097;DHT22;18610;49.916;8.284;2023-12-22T08:14:51;7.70;99.90
32097;DHT22;18610;49.916;8.284;2023-12-22T08:17:18;7.70;99.90
32097;DHT22;18610;49.916;8.284;2023-12-22T08:19:44;7.70;99.90
32097;DHT22;18610;49.916;8.284;2023-12-22T08:22:12;7.70;99.90
32097;DHT22;18610;49.916;8.284;2023-12-22T08:24:39;7.70;99.90
32097;DHT22;18610;49.916;8.284;2023-12-22T08:27:07;7.70;99.90
32097;DHT22;18610;49.916;8.284;2023-12-22T08:29:34;7.70;99.90
32097;DHT22;18610;49.916;8.284;2023-12-22T08:32:01;7.70;99.90
32097;DHT22;18610;49.916;8.284;2023-12-22T08:34:28;7.70;99.90
32097;DHT22;18610;49.916;8.284;2023-12-22T08:36:54;7.70;99.90
32097;DHT22;18610;49.916;8.284;2023-12-22T08:39:22;7.60;99.90
32097;DHT22;18610;49.916;8.284;2023-12-22T08:41:50;7.60;99.90
32097;DHT22;18610;49.916;8.284;2023-12-22T08:44:16;7.60;99.90
32097;DHT22;18610;49.916;8.284;2023-12-22T08:46:43;7.70;99.90
32097;DHT22;18610;49.916;8.284;2023-12-22T08:49:09;7.70;99.90
32097;DHT22;18610;49.916;8.284;2023-12-22T08:51:36;7.70;99.90
32097;DHT22;18610;49.916;8.284;2023-12-22T08:54:03;7.70;99.90
32097;DHT22;18610;49.916;8.284;2023-12-22T08:56:31;7.80;99.90
32097;DHT22;18610;49.916;8.284;2023-12-22T08:59:00;7.80;99.90
32097;DHT22;18610;49.916;8.284;2023-12-22T09:01:27;7.80;99.90
32097;DHT22;18610;49.916;8.284;2023-12-22T09:03:54;7.80;99.90
32097;DHT22;18610;49.916;8.284;2023-12-22T09:06:22;7.80;99.90
32097;DHT22;18610;49.916;8.284;2023-12-22T09:08:50;7.80;99.90
32097;DHT22;18610;49.916;8.284;2023-12-22T09:11:17;7.80;99.90
32097;DHT22;18610;49.916;8.284;2023-12-22T09:13:45;7.80;99.90
32097;DHT22;18610;49.916;8.284;2023-12-22T09:16:12;7.90;99.90
32097;DHT22;18610;49.916;8.284;2023-12-22T09:18:40;7.90;99.90
32097;DHT22;18610;49.916;8.284;2023-12-22T09:21:07;7.90;99.90
32097;DHT22;18610;49.916;8.284;2023-12-22T09:23:34;7.90;99.90
32097;DHT22;18610;49.916;8.284;2023-12-22T09:26:01;8.00;99.90
32097;DHT22;18610;49.916;8.284;2023-12-22T09:28:28;8.00;99.90
32097;DHT22;18610;49.916;8.284;2023-12-22T09:30:56;8.00;99.90
32097;DHT22;18610;49.916;8.284;2023-12-22T09:33:22;8.00;99.90
32097;DHT22;18610;49.916;8.284;2023-12-22T09:35:49;8.10;99.90
32097;DHT22;18610;49.916;8.284;2023-12-22T09:38:16;8.10;99.90
32097;DHT22;18610;49.916;8.284;2023-12-22T09:40:43;8.10;99.90
32097;DHT22;18610;49.916;8.284;2023-12-22T09:43:11;8.10;99.90
32097;DHT22;18610;49.916;8.284;2023-12-22T09:45:41;8.20;99.90
32097;DHT22;18610;49.916;8.284;2023-12-22T09:48:11;8.20;99.90
32097;DHT22;18610;49.916;8.284;2023-12-22T09:50:42;8.30;99.90
32097;DHT22;18610;49.916;8.284;2023-12-22T09:53:09;8.30;99.90
32097;DHT22;18610;49.916;8.284;2023-12-22T09:55:38;8.30;99.90
32097;DHT22;18610;49.916;8.284;2023-12-22T09:58:05;8.40;99.90
32097;DHT22;18610;49.916;8.284;2023-12-22T10:00:33;8.40;99.90
32097;DHT22;18610;49.916;8.284;2023-12-22T10:03:00;8.50;99.90
32097;DHT22;18610;49.916;8.284;2023-12-22T10:05:29;8.60;99.90
32097;DHT22;18610;49.916;8.284;2023-12-22T10:07:56;8.60;99.90
32097;DHT22;18610;49.916;8.284;2023-12-22T10:10:23;8.60;99.90
32097;DHT22;18610;49.916;8.284;2023-12-22T10:12:52;8.70;99.90
32097;DHT22;18610;49.916;8.284;2023-12-22T10:15:20;8.70;99.90
32097;DHT22;18610;49.916;8.284;2023-12-22T10:17:49;8.70;99.90
32097;DHT22;18610;49.916;8.284;2023-12-22T10:20:16;8.70;99.90
32097;DHT22;18610;49.916;8.284;2023-12-22T10:22:44;8.70;99.90
32097;DHT22;18610;49.916;8.284;2023-12-22T10:25:14;8.80;99.90
32097;DHT22;18610;49.916;8.284;2023-12-22T10:27:42;8.80;99.90
32097;DHT22;18610;49.916;8.284;2023-12-22T10:30:10;8.90;99.90
32097;DHT22;18610;49.916;8.284;2023-12-22T10:32:40;8.90;99.90
32097;DHT22;18610;49.916;8.284;2023-12-22T10:35:08;8.90;99.90
32097;DHT22;18610;49.916;8.284;2023-12-22T10:37:35;8.90;99.90
32097;DHT22;18610;49.916;8.284;2023-12-22T10:40:05;8.90;99.90
32097;DHT22;18610;49.916;8.284;2023-12-22T10:42:32;9.00;99.90
32097;DHT22;18610;49.916;8.284;2023-12-22T10:44:59;9.00;99.90
32097;DHT22;18610;49.916;8.284;2023-12-22T10:47:26;9.00;99.90
32097;DHT22;18610;49.916;8.284;2023-12-22T10:49:52;9.10;99.90
32097;DHT22;18610;49.916;8.284;2023-12-22T10:52:19;9.00;99.90
32097;DHT22;18610;49.916;8.284;2023-12-22T10:54:47;9.00;99.90
32097;DHT22;18610;49.916;8.284;2023-12-22T10:57:18;9.00;99.90
32097;DHT22;18610;49.916;8.284;2023-12-22T10:59:47;9.10;99.90
32097;DHT22;18610;49.916;8.284;2023-12-22T11:02:16;9.10;99.90
32097;DHT22;18610;49.916;8.284;2023-12-22T11:04:47;9.20;99.90
32097;DHT22;18610;49.916;8.284;2023-12-22T11:07:23;9.10;99.90
32097;DHT22;18610;49.916;8.284;2023-12-22T11:09:51;9.10;99.90
32097;DHT22;18610;49.916;8.284;2023-12-22T11:12:21;9.10;99.90
32097;DHT22;18610;49.916;8.284;2023-12-22T11:14:50;9.20;99.90
32097;DHT22;18610;49.916;8.284;2023-12-22T11:17:19;9.10;99.90
32097;DHT22;18610;49.916;8.284;2023-12-22T11:19:49;9.20;99.90
32097;DHT22;18610;49.916;8.284;2023-12-22T11:22:17;9.20;99.90
32097;DHT22;18610;49.916;8.284;2023-12-22T11:24:46;9.20;99.90
32097;DHT22;18610;49.916;8.284;2023-12-22T11:27:13;9.30;99.90
32097;DHT22;18610;49.916;8.284;2023-12-22T11:29:45;9.30;99.90
32097;DHT22;18610;49.916;8.284;2023-12-22T11:32:15;9.30;99.90
32097;DHT22;18610;49.916;8.284;2023-12-22T11:34:43;9.30;99.90
32097;DHT22;18610;49.916;8.284;2023-12-22T11:37:11;9.30;99.90
32097;DHT22;18610;49.916;8.284;2023-12-22T11:39:39;9.30;99.90
32097;DHT22;18610;49.916;8.284;2023-12-22T11:42:07;9.20;99.90
32097;DHT22;18610;49.916;8.284;2023-12-22T11:44:35;9.20;99.90
32097;DHT22;18610;49.916;8.284;2023-12-22T11:47:07;9.20;99.90
32097;DHT22;18610;49.916;8.284;2023-12-22T11:49:34;9.10;99.90
32097;DHT22;18610;49.916;8.284;2023-12-22T11:52:12;9.00;99.90
32097;DHT22;18610;49.916;8.284;2023-12-22T11:54:48;8.90;99.90
32097;DHT22;18610;49.916;8.284;2023-12-22T11:57:33;8.90;99.90
32097;DHT22;18610;49.916;8.284;2023-12-22T12:00:03;8.90;99.90
32097;DHT22;18610;49.916;8.284;2023-12-22T12:02:33;8.90;99.90
32097;DHT22;18610;49.916;8.284;2023-12-22T12:05:01;9.00;99.90
32097;DHT22;18610;49.916;8.284;2023-12-22T12:07:44;9.00;99.90
32097;DHT22;18610;49.916;8.284;2023-12-22T12:10:13;9.10;99.90
32097;DHT22;18610;49.916;8.284;2023-12-22T12:13:04;9.10;99.90
32097;DHT22;18610;49.916;8.284;2023-12-22T12:15:33;9.10;99.90
32097;DHT22;18610;49.916;8.284;2023-12-22T12:18:02;9.00;99.90
32097;DHT22;18610;49.916;8.284;2023-12-22T12:20:29;9.00;99.90
32097;DHT22;18610;49.916;8.284;2023-12-22T12:22:56;9.00;99.90
32097;DHT22;18610;49.916;8.284;2023-12-22T12:25:23;9.00;99.90
32097;DHT22;18610;49.916;8.284;2023-12-22T12:27:51;9.00;99.90
32097;DHT22;18610;49.916;8.284;2023-12-22T12:30:26;9.00;99.90
32097;DHT22;18610;49.916;8.284;2023-12-22T12:32:54;9.00;99.90
32097;DHT22;18610;49.916;8.284;2023-12-22T12:35:24;9.00;99.90
32097;DHT22;18610;49.916;8.284;2023-12-22T12:37:52;9.00;99.90
32097;DHT22;18610;49.916;8.284;2023-12-22T12:40:21;9.10;99.90
32097;DHT22;18610;49.916;8.284;2023-12-22T12:42:50;9.10;99.90
32097;DHT22;18610;49.916;8.284;2023-12-22T12:45:22;9.10;99.90
32097;DHT22;18610;49.916;8.284;2023-12-22T12:47:55;9.20;99.90
32097;DHT22;18610;49.916;8.284;2023-12-22T12:50:23;9.30;99.90
32097;DHT22;18610;49.916;8.284;2023-12-22T12:52:49;9.40;99.90
32097;DHT22;18610;49.916;8.284;2023-12-22T12:55:17;9.40;99.90
32097;DHT22;18610;49.916;8.284;2023-12-22T12:57:44;9.50;99.90
32097;DHT22;18610;49.916;8.284;2023-12-22T13:00:12;9.50;99.90
32097;DHT22;18610;49.916;8.284;2023-12-22T13:02:39;9.60;99.90
32097;DHT22;18610;49.916;8.284;2023-12-22T13:05:06;9.60;99.90
32097;DHT22;18610;49.916;8.284;2023-12-22T13:07:36;9.60;99.90
32097;DHT22;18610;49.916;8.284;2023-12-22T13:10:04;9.60;99.90
32097;DHT22;18610;49.916;8.284;2023-12-22T13:12:32;9.70;99.90
32097;DHT22;18610;49.916;8.284;2023-12-22T13:15:02;9.70;99.90
32097;DHT22;18610;49.916;8.284;2023-12-22T13:17:29;9.70;99.90
32097;DHT22;18610;49.916;8.284;2023-12-22T13:19:56;9.60;99.90
32097;DHT22;18610;49.916;8.284;2023-12-22T13:22:23;9.70;99.90
32097;DHT22;18610;49.916;8.284;2023-12-22T13:24:57;9.70;99.90
32097;DHT22;18610;49.916;8.284;2023-12-22T13:27:24;9.70;99.90
32097;DHT22;18610;49.916;8.284;2023-12-22T13:29:51;9.80;99.90
32097;DHT22;18610;49.916;8.284;2023-12-22T13:32:20;9.80;99.90
32097;DHT22;18610;49.916;8.284;2023-12-22T13:34:50;9.80;99.90
32097;DHT22;18610;49.916;8.284;2023-12-22T13:37:17;9.80;99.90
32097;DHT22;18610;49.916;8.284;2023-12-22T13:39:44;9.80;99.90
32097;DHT22;18610;49.916;8.284;2023-12-22T13:42:16;9.80;99.90
32097;DHT22;18610;49.916;8.284;2023-12-22T13:44:44;9.80;99.90
32097;DHT22;18610;49.916;8.284;2023-12-22T13:47:13;9.80;99.90
32097;DHT22;18610;49.916;8.284;2023-12-22T13:49:39;9.80;99.90
32097;DHT22;18610;49.916;8.284;2023-12-22T13:52:06;9.90;99.90
32097;DHT22;18610;49.916;8.284;2023-12-22T13:54:33;9.90;99.90
32097;DHT22;18610;49.916;8.284;2023-12-22T13:57:00;9.90;99.90
32097;DHT22;18610;49.916;8.284;2023-12-22T13:59:32;9.90;99.90
32097;DHT22;18610;49.916;8.284;2023-12-22T14:01:59;9.90;99.90
32097;DHT22;18610;49.916;8.284;2023-12-22T14:04:26;9.90;99.90
32097;DHT22;18610;49.916;8.284;2023-12-22T14:06:52;9.90;99.90
32097;DHT22;18610;49.916;8.284;2023-12-22T14:09:19;9.90;99.90
32097;DHT22;18610;49.916;8.284;2023-12-22T14:11:49;10.00;99.90
32097;DHT22;18610;49.916;8.284;2023-12-22T14:14:16;9.90;99.90
32097;DHT22;18610;49.916;8.284;2023-12-22T14:16:45;10.00;99.90
32097;DHT22;18610;49.916;8.284;2023-12-22T14:19:12;10.00;99.90
32097;DHT22;18610;49.916;8.284;2023-12-22T14:21:39;10.00;99.90
32097;DHT22;18610;49.916;8.284;2023-12-22T14:24:06;10.10;99.90
32097;DHT22;18610;49.916;8.284;2023-12-22T14:26:33;10.10;99.90
32097;DHT22;18610;49.916;8.284;2023-12-22T14:29:15;10.10;99.90
32097;DHT22;18610;49.916;8.284;2023-12-22T14:31:41;10.10;99.90
32097;DHT22;18610;49.916;8.284;2023-12-22T14:34:12;10.20;99.90
32097;DHT22;18610;49.916;8.284;2023-12-22T14:36:39;10.20;99.90
32097;DHT22;18610;49.916;8.284;2023-12-22T14:39:05;10.10;99.90
32097;DHT22;18610;49.916;8.284;2023-12-22T14:41:35;10.20;99.90
32097;DHT22;18610;49.916;8.284;2023-12-22T14:44:02;10.20;99.90
32097;DHT22;18610;49.916;8.284;2023-12-22T14:46:29;10.20;99.90
32097;DHT22;18610;49.916;8.284;2023-12-22T14:48:55;10.20;99.90
32097;DHT22;18610;49.916;8.284;2023-12-22T14:51:23;10.20;99.90
32097;DHT22;18610;49.916;8.284;2023-12-22T14:53:50;10.20;99.90
32097;DHT22;18610;49.916;8.284;2023-12-22T14:56:16;10.20;99.90
32097;DHT22;18610;49.916;8.284;2023-12-22T14:58:43;10.20;99.90
32097;DHT22;18610;49.916;8.284;2023-12-22T15:01:12;10.20;99.90
32097;DHT22;18610;49.916;8.284;2023-12-22T15:03:39;10.10;99.90
32097;DHT22;18610;49.916;8.284;2023-12-22T15:06:06;10.10;99.90
32097;DHT22;18610;49.916;8.284;2023-12-22T15:08:34;10.10;99.90
32097;DHT22;18610;49.916;8.284;2023-12-22T15:11:00;10.20;99.90
32097;DHT22;18610;49.916;8.284;2023-12-22T15:13:27;10.20;99.90
32097;DHT22;18610;49.916;8.284;2023-12-22T15:15:54;10.20;99.90
32097;DHT22;18610;49.916;8.284;2023-12-22T15:18:20;10.20;99.90
32097;DHT22;18610;49.916;8.284;2023-12-22T15:20:47;10.20;99.90
32097;DHT22;18610;49.916;8.284;2023-12-22T15:23:16;10.20;99.90
32097;DHT22;18610;49.916;8.284;2023-12-22T15:25:44;10.20;99.90
32097;DHT22;18610;49.916;8.284;2023-12-22T15:28:11;10.20;99.90
32097;DHT22;18610;49.916;8.284;2023-12-22T15:30:38;10.20;99.90
32097;DHT22;18610;49.916;8.284;2023-12-22T15:33:04;10.20;99.90
32097;DHT22;18610;49.916;8.284;2023-12-22T15:35:31;10.20;99.90
32097;DHT22;18610;49.916;8.284;2023-12-22T15:37:57;10.20;99.90
32097;DHT22;18610;49.916;8.284;2023-12-22T15:40:26;10.10;99.90
32097;DHT22;18610;49.916;8.284;2023-12-22T15:42:55;10.20;99.90
32097;DHT22;18610;49.916;8.284;2023-12-22T15:45:21;10.10;99.90
32097;DHT22;18610;49.916;8.284;2023-12-22T15:47:48;10.10;99.90